< < Back
Terminal Aerodrome Forecast


Current Version              Previous Versions:   1  2  3  4  5  6  7  8  9  

Terminal Aerodrome Forecast

877
FTUS44 KHUN 031143 CCA
TAFHSV
TAF COR
KHSV 031143Z 0312/0412 VRB02KT P6SM BKN150 OVC200
      TEMPO 0312/0313 5SM BR
     FM031500 VRB02KT P6SM SCT040 BKN070
     FM040300 VRB02KT 4SM BR FEW060=



Latest METAR

437
SAUS80 KWBC 042100 RRC
MTRHSV
METAR KHSV 042053Z 00000KT 10SM SCT060 SCT250 33/19 A2998 RMK AO2 SLP144
T03330194 58013


USA.gov is the U.S. government's official web portal to all federal, state and local government web resources and services.